Macuru Arrow — C6YH3 — position and weather

sailwx.info

Track history (hours):
 
Tides and Currents Weather Stations Pressure Air Temp Water Temp Dewpoint Dewpoint Depression Visibility Wind Speed Wind Dir Waves Ship Positions

Macuru Arrow

Last reported at 2016-Jun-18 08:07 UTC. Time now 2016-Jun-24 22:19 UTC.
Position N 31°17' E 121°50'.

Length 225 m; draft 8.1 m.

Type: Cargo ship. MMSI: 311032500.

Date/timePositionNaut miles runAvg speedWind from/ knotsBaromVisibWave heightAir tempDewpointWater temp
2016-Jun-18 08:07N 31°17' E 121°50'812.4
2016-Jun-18 07:27N 31°20' E 121°41'1010.7
2016-Jun-18 06:33N 31°25' E 121°31'9 8.7
2016-Jun-18 05:32N 31°30' E 121°23'0 0.0
2016-Jun-18 04:29N 31°30' E 121°23'0 0.0
2016-Jun-18 03:32N 31°30' E 121°23'0 0.0
2016-Jun-18 02:32N 31°30' E 121°23'0 0.0
2016-Jun-18 01:32N 31°30' E 121°23'0 0.0
2016-Jun-18 00:32N 31°30' E 121°23'0 0.0
2016-Jun-17 23:32N 31°30' E 121°23'0 0.0
2016-Jun-17 22:32N 31°30' E 121°23'0 0.0
2016-Jun-17 21:32N 31°30' E 121°23'0 0.0
2016-Jun-17 20:32N 31°30' E 121°23'0 0.0
2016-Jun-17 19:32N 31°30' E 121°23'0 0.0
2016-Jun-17 18:32N 31°30' E 121°23'0 0.0
2016-Jun-17 17:32N 31°30' E 121°23'0 0.0
2016-Jun-17 16:32N 31°30' E 121°23'0 0.0
2016-Jun-17 15:32N 31°30' E 121°23'0 0.0
2016-Jun-17 14:26N 31°30' E 121°23'0 0.0
2016-Jun-17 13:32N 31°30' E 121°23'0 0.0
2016-Jun-17 12:26N 31°30' E 121°23'0 0.0
2016-Jun-17 11:29N 31°30' E 121°23'0 0.0
2016-Jun-17 10:32N 31°30' E 121°23'0 0.0
2016-Jun-17 09:32N 31°30' E 121°23'0 0.0
2016-Jun-17 08:29N 31°30' E 121°23'0 0.0
2016-Jun-17 07:32N 31°30' E 121°23'0 0.0
2016-Jun-17 06:32N 31°30' E 121°23'0 0.0
2016-Jun-17 05:32N 31°30' E 121°23'0 0.0
2016-Jun-17 04:29N 31°30' E 121°23'0 0.0
2016-Jun-17 03:32N 31°30' E 121°23'0 0.0
2016-Jun-17 02:32N 31°30' E 121°23'0 0.0
2016-Jun-17 01:29N 31°30' E 121°23'0 0.0
2016-Jun-17 00:32N 31°30' E 121°23'0 0.0
2016-Jun-16 23:32N 31°30' E 121°23'0 0.0
2016-Jun-16 22:32N 31°30' E 121°23'0 0.0
2016-Jun-16 21:32N 31°30' E 121°23'0 0.0
2016-Jun-16 20:32N 31°30' E 121°23'0 0.0
2016-Jun-16 19:32N 31°30' E 121°23'0 0.0
2016-Jun-16 18:29N 31°30' E 121°23'0 0.0
2016-Jun-16 17:32N 31°30' E 121°23'0 0.3
2016-Jun-16 16:33N 31°30' E 121°22'2 2.2
2016-Jun-16 15:32N 31°32' E 121°22'0 0.1
2016-Jun-16 14:32N 31°32' E 121°22'0 0.0
2016-Jun-16 13:32N 31°32' E 121°22'0 0.1
2016-Jun-16 12:32N 31°32' E 121°22'0 0.1
2016-Jun-16 11:32N 31°32' E 121°22'0 0.0
2016-Jun-16 10:32N 31°32' E 121°22'0 0.0
2016-Jun-16 09:32N 31°32' E 121°22'0 0.0
2016-Jun-16 08:32N 31°32' E 121°22'0 0.0
2016-Jun-16 07:32N 31°32' E 121°22'0 0.0
2016-Jun-16 06:32N 31°32' E 121°22'0 0.0
2016-Jun-16 05:32N 31°32' E 121°22'0 0.0
2016-Jun-16 04:32N 31°32' E 121°22'2 1.7
2016-Jun-16 03:34N 31°31' E 121°24'10 9.9
2016-Jun-16 02:33N 31°24' E 121°32'1110.0
2016-Jun-16 01:29N 31°19' E 121°43'1011.1
2016-Jun-16 00:33N 31°16' E 121°55'1110.7
2016-Jun-15 23:29N 31°13' E 122°08'1010.0
2016-Jun-15 22:28N 31°07' E 122°17'  
2016-Jun-13 08:08N 23°48' E 118°33'28011.8
2016-Jun-12 08:30N 22°13' E 113°48'1410.7
2016-Jun-12 07:11N 22°27' E 113°45'  
2016-Jun-09 10:15N 23°03' E 113°30'0 0.0
2016-Jun-09 09:09N 23°03' E 113°30'0 0.0
2016-Jun-09 08:33N 23°03' E 113°30'5 5.0
2016-Jun-09 07:33N 22°58' E 113°32'9 9.4
2016-Jun-09 06:33N 22°50' E 113°35'2912.3
2016-Jun-09 04:12N 22°22' E 113°47'913.9
2016-Jun-09 03:31N 22°13' E 113°48'  
Track history (hours):
 
Tides and Currents Weather Stations Pressure Air Temp Water Temp Dewpoint Dewpoint Depression Visibility Wind Speed Wind Dir Waves Ship Positions

Macuru Arrow

Last reported at 2016-Jun-18 08:07 UTC. Time now 2016-Jun-24 22:19 UTC.
Position N 31°17' E 121°50'.

Length 225 m; draft 8.1 m.

Type: Cargo ship. MMSI: 311032500.

Date/timePositionNaut miles runAvg speedWind from/ knotsBaromVisibWave heightAir tempDewpointWater temp
2016-Jun-18 08:07N 31°17' E 121°50'812.4
2016-Jun-18 07:27N 31°20' E 121°41'1010.7
2016-Jun-18 06:33N 31°25' E 121°31'9 8.7
2016-Jun-18 05:32N 31°30' E 121°23'0 0.0
2016-Jun-18 04:29N 31°30' E 121°23'0 0.0
2016-Jun-18 03:32N 31°30' E 121°23'0 0.0
2016-Jun-18 02:32N 31°30' E 121°23'0 0.0
2016-Jun-18 01:32N 31°30' E 121°23'0 0.0
2016-Jun-18 00:32N 31°30' E 121°23'0 0.0
2016-Jun-17 23:32N 31°30' E 121°23'0 0.0
2016-Jun-17 22:32N 31°30' E 121°23'0 0.0
2016-Jun-17 21:32N 31°30' E 121°23'0 0.0
2016-Jun-17 20:32N 31°30' E 121°23'0 0.0
2016-Jun-17 19:32N 31°30' E 121°23'0 0.0
2016-Jun-17 18:32N 31°30' E 121°23'0 0.0
2016-Jun-17 17:32N 31°30' E 121°23'0 0.0
2016-Jun-17 16:32N 31°30' E 121°23'0 0.0
2016-Jun-17 15:32N 31°30' E 121°23'0 0.0
2016-Jun-17 14:26N 31°30' E 121°23'0 0.0
2016-Jun-17 13:32N 31°30' E 121°23'0 0.0
2016-Jun-17 12:26N 31°30' E 121°23'0 0.0
2016-Jun-17 11:29N 31°30' E 121°23'0 0.0
2016-Jun-17 10:32N 31°30' E 121°23'0 0.0
2016-Jun-17 09:32N 31°30' E 121°23'0 0.0
2016-Jun-17 08:29N 31°30' E 121°23'0 0.0
2016-Jun-17 07:32N 31°30' E 121°23'0 0.0
2016-Jun-17 06:32N 31°30' E 121°23'0 0.0
2016-Jun-17 05:32N 31°30' E 121°23'0 0.0
2016-Jun-17 04:29N 31°30' E 121°23'0 0.0
2016-Jun-17 03:32N 31°30' E 121°23'0 0.0
2016-Jun-17 02:32N 31°30' E 121°23'0 0.0
2016-Jun-17 01:29N 31°30' E 121°23'0 0.0
2016-Jun-17 00:32N 31°30' E 121°23'0 0.0
2016-Jun-16 23:32N 31°30' E 121°23'0 0.0
2016-Jun-16 22:32N 31°30' E 121°23'0 0.0
2016-Jun-16 21:32N 31°30' E 121°23'0 0.0
2016-Jun-16 20:32N 31°30' E 121°23'0 0.0
2016-Jun-16 19:32N 31°30' E 121°23'0 0.0
2016-Jun-16 18:29N 31°30' E 121°23'0 0.0
2016-Jun-16 17:32N 31°30' E 121°23'0 0.3
2016-Jun-16 16:33N 31°30' E 121°22'2 2.2
2016-Jun-16 15:32N 31°32' E 121°22'0 0.1
2016-Jun-16 14:32N 31°32' E 121°22'0 0.0
2016-Jun-16 13:32N 31°32' E 121°22'0 0.1
2016-Jun-16 12:32N 31°32' E 121°22'0 0.1
2016-Jun-16 11:32N 31°32' E 121°22'0 0.0
2016-Jun-16 10:32N 31°32' E 121°22'0 0.0
2016-Jun-16 09:32N 31°32' E 121°22'0 0.0
2016-Jun-16 08:32N 31°32' E 121°22'0 0.0
2016-Jun-16 07:32N 31°32' E 121°22'0 0.0
2016-Jun-16 06:32N 31°32' E 121°22'0 0.0
2016-Jun-16 05:32N 31°32' E 121°22'0 0.0
2016-Jun-16 04:32N 31°32' E 121°22'2 1.7
2016-Jun-16 03:34N 31°31' E 121°24'10 9.9
2016-Jun-16 02:33N 31°24' E 121°32'1110.0
2016-Jun-16 01:29N 31°19' E 121°43'1011.1
2016-Jun-16 00:33N 31°16' E 121°55'1110.7
2016-Jun-15 23:29N 31°13' E 122°08'1010.0
2016-Jun-15 22:28N 31°07' E 122°17'  
2016-Jun-13 08:08N 23°48' E 118°33'28011.8
2016-Jun-12 08:30N 22°13' E 113°48'1410.7
2016-Jun-12 07:11N 22°27' E 113°45'  
2016-Jun-09 10:15N 23°03' E 113°30'0 0.0
2016-Jun-09 09:09N 23°03' E 113°30'0 0.0
2016-Jun-09 08:33N 23°03' E 113°30'5 5.0
2016-Jun-09 07:33N 22°58' E 113°32'9 9.4
2016-Jun-09 06:33N 22°50' E 113°35'2912.3
2016-Jun-09 04:12N 22°22' E 113°47'913.9
2016-Jun-09 03:31N 22°13' E 113°48'  

Dump ship's entire track history